sensor_id;sensor_type;location;lat;lon;timestamp;pressure;altitude;pressure_sealevel;temperature
19568;BMP280;9930;49.240;8.548;2023-09-12T00:00:15;100011.31;;;25.06
19568;BMP280;9930;49.240;8.548;2023-09-12T00:02:40;100007.88;;;25.04
19568;BMP280;9930;49.240;8.548;2023-09-12T00:05:08;100007.88;;;25.04
19568;BMP280;9930;49.240;8.548;2023-09-12T00:07:39;100006.94;;;25.07
19568;BMP280;9930;49.240;8.548;2023-09-12T00:10:07;99992.31;;;25.01
19568;BMP280;9930;49.240;8.548;2023-09-12T00:12:36;100001.72;;;25.07
19568;BMP280;9930;49.240;8.548;2023-09-12T00:15:04;100009.44;;;25.11
19568;BMP280;9930;49.240;8.548;2023-09-12T00:17:36;99996.69;;;25.01
19568;BMP280;9930;49.240;8.548;2023-09-12T00:20:06;100012.97;;;25.09
19568;BMP280;9930;49.240;8.548;2023-09-12T02:05:55;99979.63;;;24.21
19568;BMP280;9930;49.240;8.548;2023-09-12T02:08:20;99958.13;;;24.13
19568;BMP280;9930;49.240;8.548;2023-09-12T02:10:46;99947.78;;;24.10
19568;BMP280;9930;49.240;8.548;2023-09-12T02:13:12;99939.13;;;24.08
19568;BMP280;9930;49.240;8.548;2023-09-12T02:15:38;99937.38;;;24.08
19568;BMP280;9930;49.240;8.548;2023-09-12T02:18:04;99972.59;;;24.25
19568;BMP280;9930;49.240;8.548;2023-09-12T02:20:31;99945.16;;;24.10
19568;BMP280;9930;49.240;8.548;2023-09-12T02:22:57;99946.06;;;24.09
19568;BMP280;9930;49.240;8.548;2023-09-12T02:25:25;99940.00;;;24.08
19568;BMP280;9930;49.240;8.548;2023-09-12T02:27:51;99946.91;;;24.09
19568;BMP280;9930;49.240;8.548;2023-09-12T02:30:17;99941.72;;;24.09
19568;BMP280;9930;49.240;8.548;2023-09-12T02:32:43;99944.28;;;24.11
19568;BMP280;9930;49.240;8.548;2023-09-12T02:35:09;99953.81;;;24.12
19568;BMP280;9930;49.240;8.548;2023-09-12T02:37:35;99970.03;;;24.23
19568;BMP280;9930;49.240;8.548;2023-09-12T02:40:01;99980.41;;;24.25
19568;BMP280;9930;49.240;8.548;2023-09-12T02:42:27;99950.38;;;24.10
19568;BMP280;9930;49.240;8.548;2023-09-12T02:44:55;99953.91;;;24.07
19568;BMP280;9930;49.240;8.548;2023-09-12T02:47:22;99984.69;;;24.29
19568;BMP280;9930;49.240;8.548;2023-09-12T02:49:49;99968.38;;;24.19
19568;BMP280;9930;49.240;8.548;2023-09-12T02:52:15;99983.09;;;24.21
19568;BMP280;9930;49.240;8.548;2023-09-12T02:54:41;99979.63;;;24.21
19568;BMP280;9930;49.240;8.548;2023-09-12T02:57:06;99949.59;;;24.06
19568;BMP280;9930;49.240;8.548;2023-09-12T02:59:32;99941.81;;;24.05
19568;BMP280;9930;49.240;8.548;2023-09-12T03:01:58;99967.38;;;24.25
19568;BMP280;9930;49.240;8.548;2023-09-12T03:04:36;99937.44;;;24.07
19568;BMP280;9930;49.240;8.548;2023-09-12T03:07:06;99930.53;;;24.04
19568;BMP280;9930;49.240;8.548;2023-09-12T03:09:34;99945.25;;;24.07
19568;BMP280;9930;49.240;8.548;2023-09-12T03:12:06;99930.50;;;24.06
19568;BMP280;9930;49.240;8.548;2023-09-12T03:14:39;99957.03;;;24.21
19568;BMP280;9930;49.240;8.548;2023-09-12T03:17:07;99946.00;;;24.12
19568;BMP280;9930;49.240;8.548;2023-09-12T03:19:36;99968.19;;;24.28
19568;BMP280;9930;49.240;8.548;2023-09-12T03:22:06;99972.47;;;24.31
19568;BMP280;9930;49.240;8.548;2023-09-12T03:24:39;99961.25;;;24.27
19568;BMP280;9930;49.240;8.548;2023-09-12T03:27:06;99972.47;;;24.31
19568;BMP280;9930;49.240;8.548;2023-09-12T03:29:36;99976.72;;;24.35
19568;BMP280;9930;49.240;8.548;2023-09-12T03:32:04;99963.03;;;24.25
19568;BMP280;9930;49.240;8.548;2023-09-12T03:34:33;99955.25;;;24.23
19568;BMP280;9930;49.240;8.548;2023-09-12T03:37:06;99962.16;;;24.26
19568;BMP280;9930;49.240;8.548;2023-09-12T03:39:36;99948.41;;;24.19
19568;BMP280;9930;49.240;8.548;2023-09-12T04:51:31;99973.91;;;24.07
19568;BMP280;9930;49.240;8.548;2023-09-12T04:53:56;99967.09;;;24.01
19568;BMP280;9930;49.240;8.548;2023-09-12T04:56:24;99949.88;;;23.96
19568;BMP280;9930;49.240;8.548;2023-09-12T05:02:32;100002.31;;;24.17
19568;BMP280;9930;49.240;8.548;2023-09-12T05:05:00;99994.91;;;24.01
19568;BMP280;9930;49.240;8.548;2023-09-12T05:07:27;100015.28;;;24.19
19568;BMP280;9930;49.240;8.548;2023-09-12T05:09:59;99968.09;;;23.96
19568;BMP280;9930;49.240;8.548;2023-09-12T05:12:30;99979.31;;;23.99
19568;BMP280;9930;49.240;8.548;2023-09-12T05:36:28;100009.66;;;24.00
19568;BMP280;9930;49.240;8.548;2023-09-12T05:51:37;100011.28;;;24.06
19568;BMP280;9930;49.240;8.548;2023-09-12T06:39:40;99996.06;;;24.59
19568;BMP280;9930;49.240;8.548;2023-09-12T07:13:11;100046.19;;;26.46
19568;BMP280;9930;49.240;8.548;2023-09-12T07:15:37;100030.53;;;26.45
19568;BMP280;9930;49.240;8.548;2023-09-12T07:18:04;100023.28;;;26.53
19568;BMP280;9930;49.240;8.548;2023-09-12T07:20:34;100037.75;;;26.63
19568;BMP280;9930;49.240;8.548;2023-09-12T07:23:00;100017.63;;;26.65
19568;BMP280;9930;49.240;8.548;2023-09-12T07:25:27;100016.56;;;26.71
19568;BMP280;9930;49.240;8.548;2023-09-12T07:27:54;100033.44;;;26.87
19568;BMP280;9930;49.240;8.548;2023-09-12T07:30:22;100030.59;;;26.93
19568;BMP280;9930;49.240;8.548;2023-09-12T07:32:48;100032.97;;;27.01
19568;BMP280;9930;49.240;8.548;2023-09-12T07:35:14;100061.16;;;27.18
19568;BMP280;9930;49.240;8.548;2023-09-12T07:37:40;100027.41;;;27.10
19568;BMP280;9930;49.240;8.548;2023-09-12T07:40:07;100053.94;;;27.24
19568;BMP280;9930;49.240;8.548;2023-09-12T07:42:35;100036.59;;;27.22
19568;BMP280;9930;49.240;8.548;2023-09-12T07:45:03;100034.59;;;27.28
19568;BMP280;9930;49.240;8.548;2023-09-12T07:47:35;100037.16;;;27.30
19568;BMP280;9930;49.240;8.548;2023-09-12T07:50:04;100060.72;;;27.53
19568;BMP280;9930;49.240;8.548;2023-09-12T07:52:33;100039.88;;;27.50
19568;BMP280;9930;49.240;8.548;2023-09-12T08:31:34;100036.47;;;28.15
19568;BMP280;9930;49.240;8.548;2023-09-12T09:14:48;100031.47;;;29.70
19568;BMP280;9930;49.240;8.548;2023-09-12T09:17:14;100026.91;;;29.74
19568;BMP280;9930;49.240;8.548;2023-09-12T09:19:43;100021.44;;;29.78
19568;BMP280;9930;49.240;8.548;2023-09-12T09:22:09;100020.22;;;29.85
19568;BMP280;9930;49.240;8.548;2023-09-12T09:24:35;100045.50;;;30.07
19568;BMP280;9930;49.240;8.548;2023-09-12T09:27:01;100038.31;;;30.10
19568;BMP280;9930;49.240;8.548;2023-09-12T09:29:28;100036.00;;;30.21
19568;BMP280;9930;49.240;8.548;2023-09-12T09:32:04;100020.75;;;30.11
19568;BMP280;9930;49.240;8.548;2023-09-12T09:34:44;100013.94;;;30.07
19568;BMP280;9930;49.240;8.548;2023-09-12T09:37:12;100032.53;;;30.21
19568;BMP280;9930;49.240;8.548;2023-09-12T09:39:42;100022.22;;;30.16
19568;BMP280;9930;49.240;8.548;2023-09-12T09:42:11;100046.78;;;30.34
19568;BMP280;9930;49.240;8.548;2023-09-12T09:44:43;100008.91;;;30.19
19568;BMP280;9930;49.240;8.548;2023-09-12T09:47:12;100005.13;;;30.25
19568;BMP280;9930;49.240;8.548;2023-09-12T09:49:46;100018.59;;;30.36
19568;BMP280;9930;49.240;8.548;2023-09-12T09:52:16;99990.59;;;30.35
19568;BMP280;9930;49.240;8.548;2023-09-12T09:55:13;100013.25;;;30.55
19568;BMP280;9930;49.240;8.548;2023-09-12T09:57:43;99995.47;;;30.43
19568;BMP280;9930;49.240;8.548;2023-09-12T10:00:12;100024.66;;;30.73
19568;BMP280;9930;49.240;8.548;2023-09-12T10:02:44;100008.16;;;30.69
19568;BMP280;9930;49.240;8.548;2023-09-12T10:05:15;99972.84;;;30.56
19568;BMP280;9930;49.240;8.548;2023-09-12T10:07:51;99975.34;;;30.59
19568;BMP280;9930;49.240;8.548;2023-09-12T10:10:34;99991.50;;;30.69
19568;BMP280;9930;49.240;8.548;2023-09-12T10:13:10;99971.88;;;30.58
19568;BMP280;9930;49.240;8.548;2023-09-12T10:15:41;99979.88;;;30.55
19568;BMP280;9930;49.240;8.548;2023-09-12T10:18:34;99984.22;;;30.56
19568;BMP280;9930;49.240;8.548;2023-09-12T10:21:15;99985.03;;;30.58
19568;BMP280;9930;49.240;8.548;2023-09-12T10:23:47;99990.13;;;30.62
19568;BMP280;9930;49.240;8.548;2023-09-12T10:26:21;99995.25;;;30.65
19568;BMP280;9930;49.240;8.548;2023-09-12T10:29:14;100025.38;;;30.92
19568;BMP280;9930;49.240;8.548;2023-09-12T10:31:44;99988.88;;;30.69
19568;BMP280;9930;49.240;8.548;2023-09-12T10:34:18;99987.03;;;30.71
19568;BMP280;9930;49.240;8.548;2023-09-12T10:37:06;100003.88;;;30.84
19568;BMP280;9930;49.240;8.548;2023-09-12T10:40:02;99977.94;;;30.76
19568;BMP280;9930;49.240;8.548;2023-09-12T10:42:35;99977.06;;;30.93
19568;BMP280;9930;49.240;8.548;2023-09-12T10:45:08;99981.25;;;31.13
19568;BMP280;9930;49.240;8.548;2023-09-12T10:47:40;99971.06;;;31.22
19568;BMP280;9930;49.240;8.548;2023-09-12T10:50:14;99968.53;;;31.37
19568;BMP280;9930;49.240;8.548;2023-09-12T10:52:43;99966.22;;;31.46
19568;BMP280;9930;49.240;8.548;2023-09-12T10:55:22;99963.91;;;31.56
19568;BMP280;9930;49.240;8.548;2023-09-12T10:58:09;99966.97;;;31.64
19568;BMP280;9930;49.240;8.548;2023-09-12T11:00:41;99965.72;;;31.71
19568;BMP280;9930;49.240;8.548;2023-09-12T11:03:35;99994.66;;;32.03
19568;BMP280;9930;49.240;8.548;2023-09-12T11:06:19;99978.84;;;32.03
19568;BMP280;9930;49.240;8.548;2023-09-12T11:09:38;100001.59;;;32.19
19568;BMP280;9930;49.240;8.548;2023-09-12T11:12:34;99968.69;;;32.11
19568;BMP280;9930;49.240;8.548;2023-09-12T11:15:08;99950.03;;;32.14
19568;BMP280;9930;49.240;8.548;2023-09-12T11:17:49;99952.00;;;32.26
19568;BMP280;9930;49.240;8.548;2023-09-12T11:20:18;99952.28;;;32.36
19568;BMP280;9930;49.240;8.548;2023-09-12T11:23:11;99950.97;;;32.43
19568;BMP280;9930;49.240;8.548;2023-09-12T11:25:40;99944.38;;;32.50
19568;BMP280;9930;49.240;8.548;2023-09-12T11:28:34;99945.63;;;32.59
19568;BMP280;9930;49.240;8.548;2023-09-12T11:31:06;99960.28;;;32.78
19568;BMP280;9930;49.240;8.548;2023-09-12T11:33:37;99979.63;;;32.93
19568;BMP280;9930;49.240;8.548;2023-09-12T11:36:13;99943.59;;;32.78
19568;BMP280;9930;49.240;8.548;2023-09-12T11:38:42;99934.44;;;32.83
19568;BMP280;9930;49.240;8.548;2023-09-12T11:41:11;99926.31;;;32.87
19568;BMP280;9930;49.240;8.548;2023-09-12T11:43:44;99968.34;;;33.18
19568;BMP280;9930;49.240;8.548;2023-09-12T11:46:21;99956.84;;;33.19
19568;BMP280;9930;49.240;8.548;2023-09-12T11:49:11;99960.78;;;33.26
19568;BMP280;9930;49.240;8.548;2023-09-12T11:51:52;99934.94;;;33.17
19568;BMP280;9930;49.240;8.548;2023-09-12T11:54:36;99918.81;;;33.07
19568;BMP280;9930;49.240;8.548;2023-09-12T11:57:05;99940.59;;;33.25
19568;BMP280;9930;49.240;8.548;2023-09-12T11:59:51;99926.53;;;33.25
19568;BMP280;9930;49.240;8.548;2023-09-12T12:02:20;99929.75;;;33.30
19568;BMP280;9930;49.240;8.548;2023-09-12T12:04:48;99937.94;;;33.39
19568;BMP280;9930;49.240;8.548;2023-09-12T12:07:17;99938.50;;;33.44
19568;BMP280;9930;49.240;8.548;2023-09-12T12:09:46;99911.06;;;33.33
19568;BMP280;9930;49.240;8.548;2023-09-12T12:12:15;99913.50;;;33.36
19568;BMP280;9930;49.240;8.548;2023-09-12T14:36:37;99803.91;;;33.79
19568;BMP280;9930;49.240;8.548;2023-09-12T14:39:02;99818.25;;;33.90
19568;BMP280;9930;49.240;8.548;2023-09-12T14:41:28;99813.91;;;33.89
19568;BMP280;9930;49.240;8.548;2023-09-12T14:43:56;99792.50;;;33.79
19568;BMP280;9930;49.240;8.548;2023-09-12T14:46:24;99783.81;;;33.77
19568;BMP280;9930;49.240;8.548;2023-09-12T14:48:57;99830.09;;;34.09
19568;BMP280;9930;49.240;8.548;2023-09-12T14:51:26;99833.38;;;34.13
19568;BMP280;9930;49.240;8.548;2023-09-12T14:53:53;99787.22;;;33.92
19568;BMP280;9930;49.240;8.548;2023-09-12T14:56:29;99782.56;;;33.95
19568;BMP280;9930;49.240;8.548;2023-09-12T14:59:05;99810.41;;;34.14
19568;BMP280;9930;49.240;8.548;2023-09-12T15:01:32;99781.50;;;33.98
19568;BMP280;9930;49.240;8.548;2023-09-12T15:04:00;99777.06;;;33.98
19568;BMP280;9930;49.240;8.548;2023-09-12T15:06:28;99817.72;;;34.23
19568;BMP280;9930;49.240;8.548;2023-09-12T15:08:59;99766.69;;;33.95
19568;BMP280;9930;49.240;8.548;2023-09-12T15:11:28;99766.50;;;33.98
19568;BMP280;9930;49.240;8.548;2023-09-12T15:13:58;99777.50;;;34.05
19568;BMP280;9930;49.240;8.548;2023-09-12T15:16:27;99778.22;;;34.07
19568;BMP280;9930;49.240;8.548;2023-09-12T15:18:57;99787.00;;;34.07
19568;BMP280;9930;49.240;8.548;2023-09-12T15:21:24;99761.00;;;33.89
19568;BMP280;9930;49.240;8.548;2023-09-12T15:23:57;99777.81;;;34.00
19568;BMP280;9930;49.240;8.548;2023-09-12T15:26:23;99776.00;;;34.01
19568;BMP280;9930;49.240;8.548;2023-09-12T15:28:57;99786.16;;;34.07
19568;BMP280;9930;49.240;8.548;2023-09-12T15:31:27;99750.81;;;33.83
19568;BMP280;9930;49.240;8.548;2023-09-12T15:33:57;99767.88;;;33.91
19568;BMP280;9930;49.240;8.548;2023-09-12T15:36:28;99755.06;;;33.85
19568;BMP280;9930;49.240;8.548;2023-09-12T15:38:57;99745.09;;;33.76
19568;BMP280;9930;49.240;8.548;2023-09-12T15:41:37;99754.72;;;33.77
19568;BMP280;9930;49.240;8.548;2023-09-12T15:44:10;99733.56;;;33.64
19568;BMP280;9930;49.240;8.548;2023-09-12T15:46:39;99751.66;;;33.70
19568;BMP280;9930;49.240;8.548;2023-09-12T15:49:15;99734.28;;;33.54
19568;BMP280;9930;49.240;8.548;2023-09-12T15:51:44;99733.34;;;33.55
19568;BMP280;9930;49.240;8.548;2023-09-12T15:54:14;99735.34;;;33.51
19568;BMP280;9930;49.240;8.548;2023-09-12T15:56:44;99735.56;;;33.48
19568;BMP280;9930;49.240;8.548;2023-09-12T15:59:21;99738.41;;;33.45
19568;BMP280;9930;49.240;8.548;2023-09-12T17:24:11;99753.84;;;31.72
19568;BMP280;9930;49.240;8.548;2023-09-12T17:33:24;99724.50;;;31.48
19568;BMP280;9930;49.240;8.548;2023-09-12T17:43:19;99737.44;;;31.37
